createdAt,value
2024-03-02T00:00:14.427Z,100.00
2024-03-02T00:02:48.000Z,100.00
2024-03-02T00:05:16.311Z,100.00
2024-03-02T00:07:44.120Z,100.00
2024-03-02T00:10:12.515Z,100.00
2024-03-02T00:12:40.272Z,100.00
2024-03-02T00:15:44.561Z,100.00
2024-03-02T00:18:13.666Z,100.00
2024-03-02T00:20:41.424Z,100.00
2024-03-02T00:23:09.787Z,100.00
2024-03-02T00:25:50.407Z,100.00
2024-03-02T00:28:21.237Z,100.00
2024-03-02T00:31:04.622Z,100.00
2024-03-02T00:33:38.412Z,100.00
2024-03-02T00:36:06.344Z,100.00
2024-03-02T00:38:33.403Z,100.00
2024-03-02T00:41:04.965Z,100.00
2024-03-02T00:43:47.477Z,100.00
2024-03-02T00:46:19.929Z,100.00
2024-03-02T00:48:52.591Z,100.00
2024-03-02T00:51:19.267Z,100.00
2024-03-02T00:53:46.126Z,100.00
2024-03-02T00:56:18.160Z,100.00
2024-03-02T00:58:44.744Z,100.00
2024-03-02T01:01:11.382Z,100.00
2024-03-02T01:03:38.486Z,100.00
2024-03-02T01:06:05.584Z,100.00
2024-03-02T01:08:31.994Z,100.00
2024-03-02T01:10:58.453Z,100.00
2024-03-02T01:13:25.016Z,100.00
2024-03-02T01:15:51.752Z,100.00
2024-03-02T01:18:18.300Z,100.00
2024-03-02T01:20:44.704Z,100.00
2024-03-02T01:23:11.143Z,100.00
2024-03-02T01:25:37.646Z,100.00
2024-03-02T01:28:05.101Z,100.00
2024-03-02T01:30:31.851Z,100.00
2024-03-02T01:33:00.245Z,100.00
2024-03-02T01:35:27.762Z,100.00
2024-03-02T01:37:54.727Z,100.00
2024-03-02T01:40:21.514Z,100.00
2024-03-02T01:42:48.040Z,100.00
2024-03-02T01:45:14.591Z,100.00
2024-03-02T01:47:41.196Z,100.00
2024-03-02T01:50:08.725Z,100.00
2024-03-02T01:52:35.161Z,100.00
2024-03-02T01:55:01.974Z,100.00
2024-03-02T01:57:28.499Z,100.00
2024-03-02T01:59:55.091Z,100.00
2024-03-02T02:02:21.641Z,100.00
2024-03-02T02:04:48.179Z,100.00
2024-03-02T02:07:15.525Z,100.00
2024-03-02T02:09:45.368Z,100.00
2024-03-02T02:12:12.270Z,100.00
2024-03-02T02:14:40.226Z,100.00
2024-03-02T02:17:06.652Z,100.00
2024-03-02T02:19:33.062Z,100.00
2024-03-02T02:21:59.573Z,100.00
2024-03-02T02:24:26.103Z,100.00
2024-03-02T02:26:52.534Z,100.00
2024-03-02T02:29:18.944Z,100.00
2024-03-02T02:31:45.368Z,100.00
2024-03-02T02:34:11.822Z,100.00
2024-03-02T02:36:40.292Z,100.00
2024-03-02T02:39:08.932Z,100.00
2024-03-02T02:41:35.361Z,100.00
2024-03-02T02:44:01.765Z,100.00
2024-03-02T02:46:28.191Z,100.00
2024-03-02T02:48:54.929Z,100.00
2024-03-02T02:51:21.446Z,100.00
2024-03-02T02:53:47.900Z,100.00
2024-03-02T02:56:14.348Z,100.00
2024-03-02T02:58:42.469Z,100.00
2024-03-02T03:01:09.020Z,100.00
2024-03-02T03:03:35.520Z,100.00
2024-03-02T03:06:01.980Z,100.00
2024-03-02T03:08:28.408Z,100.00
2024-03-02T03:10:54.923Z,100.00
2024-03-02T03:13:21.383Z,100.00
2024-03-02T03:15:47.821Z,100.00
2024-03-02T03:18:14.341Z,100.00
2024-03-02T03:20:40.828Z,100.00
2024-03-02T03:23:07.293Z,100.00
2024-03-02T03:25:33.720Z,100.00
2024-03-02T03:28:00.188Z,100.00
2024-03-02T03:30:26.840Z,100.00
2024-03-02T03:32:53.261Z,100.00
2024-03-02T03:35:19.715Z,100.00
2024-03-02T03:37:46.159Z,100.00
2024-03-02T03:40:12.557Z,100.00
2024-03-02T03:42:39.386Z,100.00
2024-03-02T03:45:09.458Z,100.00
2024-03-02T03:47:36.044Z,100.00
2024-03-02T03:50:05.646Z,100.00
2024-03-02T03:52:32.107Z,100.00
2024-03-02T03:54:58.619Z,100.00
2024-03-02T03:57:25.186Z,100.00
2024-03-02T03:59:51.786Z,100.00
2024-03-02T04:02:18.199Z,100.00
2024-03-02T04:04:44.837Z,100.00
2024-03-02T04:07:11.455Z,100.00
2024-03-02T04:09:37.976Z,100.00
2024-03-02T04:12:04.677Z,100.00
2024-03-02T04:14:31.129Z,100.00
2024-03-02T04:16:57.522Z,100.00
2024-03-02T04:19:24.253Z,100.00
2024-03-02T04:21:50.686Z,100.00
2024-03-02T04:24:17.132Z,100.00
2024-03-02T04:26:43.564Z,100.00
2024-03-02T04:29:10.001Z,100.00
2024-03-02T04:31:36.473Z,100.00
2024-03-02T04:34:03.000Z,100.00
2024-03-02T04:36:29.484Z,100.00
2024-03-02T04:38:56.082Z,100.00
2024-03-02T04:41:22.493Z,100.00
2024-03-02T04:43:48.921Z,100.00
2024-03-02T04:46:15.340Z,100.00
2024-03-02T04:48:41.816Z,100.00
2024-03-02T04:51:08.278Z,100.00
2024-03-02T04:53:34.676Z,100.00
2024-03-02T04:56:21.069Z,100.00
2024-03-02T04:58:47.872Z,100.00
2024-03-02T05:01:14.420Z,100.00
2024-03-02T05:03:40.960Z,100.00
2024-03-02T05:06:07.414Z,100.00
2024-03-02T05:08:35.043Z,100.00
2024-03-02T05:11:21.515Z,100.00
2024-03-02T05:13:47.949Z,100.00
2024-03-02T05:16:14.369Z,100.00
2024-03-02T05:18:40.970Z,100.00
2024-03-02T05:21:07.420Z,100.00
2024-03-02T05:23:34.340Z,100.00
2024-03-02T05:26:00.757Z,100.00
2024-03-02T05:28:27.246Z,100.00
2024-03-02T05:30:53.687Z,100.00
2024-03-02T05:33:23.561Z,100.00
2024-03-02T05:35:52.836Z,100.00
2024-03-02T05:38:19.395Z,100.00
2024-03-02T05:40:45.982Z,100.00
2024-03-02T05:43:12.835Z,100.00
2024-03-02T05:45:40.502Z,100.00
2024-03-02T05:48:10.413Z,100.00
2024-03-02T05:50:36.935Z,100.00
2024-03-02T05:53:03.361Z,100.00
2024-03-02T05:55:29.762Z,100.00
2024-03-02T05:58:08.300Z,100.00
2024-03-02T06:00:34.880Z,100.00
2024-03-02T06:03:01.413Z,100.00
2024-03-02T06:05:28.146Z,100.00
2024-03-02T06:07:54.567Z,100.00
2024-03-02T06:10:21.904Z,100.00
2024-03-02T06:12:48.434Z,100.00
2024-03-02T06:15:14.977Z,100.00
2024-03-02T06:17:41.406Z,100.00
2024-03-02T06:20:09.598Z,100.00
2024-03-02T06:22:36.289Z,100.00
2024-03-02T06:25:02.788Z,100.00
2024-03-02T06:27:29.323Z,100.00
2024-03-02T06:29:55.991Z,100.00
2024-03-02T06:32:22.419Z,100.00
2024-03-02T06:34:48.832Z,100.00
2024-03-02T06:37:17.026Z,100.00
2024-03-02T06:39:44.338Z,100.00
2024-03-02T06:42:11.082Z,100.00
2024-03-02T06:44:37.517Z,100.00
2024-03-02T06:47:03.985Z,100.00
2024-03-02T06:49:30.408Z,100.00
2024-03-02T06:51:56.877Z,100.00
2024-03-02T06:54:23.429Z,100.00
2024-03-02T06:56:50.051Z,100.00
2024-03-02T06:59:16.510Z,100.00
2024-03-02T07:01:44.549Z,100.00
2024-03-02T07:04:11.018Z,100.00
2024-03-02T07:06:37.435Z,100.00
2024-03-02T07:09:04.287Z,100.00
2024-03-02T07:11:30.750Z,100.00
2024-03-02T07:13:57.270Z,100.00
2024-03-02T07:16:30.875Z,100.00
2024-03-02T07:18:57.984Z,100.00
2024-03-02T07:21:24.674Z,100.00
2024-03-02T07:23:51.326Z,100.00
2024-03-02T07:28:50.117Z,100.00
2024-03-02T07:31:16.604Z,100.00
2024-03-02T07:33:45.228Z,100.00
2024-03-02T07:36:11.959Z,100.00
2024-03-02T07:38:38.425Z,100.00
2024-03-02T07:41:05.654Z,100.00
2024-03-02T07:43:34.254Z,100.00
2024-03-02T07:46:00.736Z,100.00
2024-03-02T07:48:28.117Z,100.00
2024-03-02T07:50:54.579Z,100.00
2024-03-02T07:53:20.990Z,100.00
2024-03-02T07:55:47.389Z,100.00
2024-03-02T07:58:14.199Z,100.00
2024-03-02T08:00:41.575Z,100.00
2024-03-02T08:03:08.378Z,100.00
2024-03-02T08:05:34.847Z,100.00
2024-03-02T08:08:01.287Z,100.00
2024-03-02T08:10:27.675Z,100.00
2024-03-02T08:12:54.139Z,100.00
2024-03-02T08:15:20.666Z,100.00
2024-03-02T08:17:50.567Z,100.00
2024-03-02T08:20:17.105Z,100.00
2024-03-02T08:22:43.719Z,100.00
2024-03-02T08:25:10.765Z,100.00
2024-03-02T08:27:37.540Z,100.00
2024-03-02T08:30:07.618Z,100.00
2024-03-02T08:32:34.320Z,100.00
2024-03-02T08:35:00.912Z,100.00
2024-03-02T08:37:27.782Z,100.00
2024-03-02T08:39:54.433Z,100.00
2024-03-02T08:42:20.997Z,100.00
2024-03-02T08:44:47.626Z,100.00
2024-03-02T08:47:14.524Z,100.00
2024-03-02T08:49:40.965Z,100.00
2024-03-02T08:52:07.428Z,100.00
2024-03-02T08:54:35.208Z,100.00
2024-03-02T08:57:01.693Z,100.00
2024-03-02T08:59:28.948Z,100.00
2024-03-02T09:01:55.662Z,100.00
2024-03-02T09:04:25.327Z,100.00
2024-03-02T09:06:53.439Z,100.00
2024-03-02T09:09:19.907Z,100.00
2024-03-02T09:11:47.515Z,100.00
2024-03-02T09:14:16.025Z,100.00
2024-03-02T09:16:43.036Z,100.00
2024-03-02T09:19:10.732Z,100.00
2024-03-02T09:21:37.300Z,100.00
2024-03-02T09:24:04.704Z,100.00
2024-03-02T09:26:31.176Z,100.00
2024-03-02T09:28:57.607Z,100.00
2024-03-02T09:31:24.024Z,100.00
2024-03-02T09:33:50.589Z,100.00
2024-03-02T09:36:21.740Z,100.00
2024-03-02T09:38:48.241Z,100.00
2024-03-02T09:41:15.970Z,100.00
2024-03-02T09:43:42.510Z,100.00
2024-03-02T09:46:12.281Z,100.00
2024-03-02T09:48:39.365Z,100.00
2024-03-02T09:51:06.738Z,100.00
2024-03-02T09:53:34.739Z,100.00
2024-03-02T09:56:01.806Z,100.00
2024-03-02T09:58:28.286Z,100.00
2024-03-02T10:00:54.939Z,100.00
2024-03-02T10:03:23.467Z,100.00
2024-03-02T10:05:49.927Z,100.00
2024-03-02T10:08:16.451Z,100.00
2024-03-02T10:10:45.520Z,100.00
2024-03-02T10:13:13.433Z,100.00
2024-03-02T10:15:42.168Z,100.00
2024-03-02T10:18:13.483Z,100.00
2024-03-02T10:20:41.238Z,100.00
2024-03-02T10:23:18.486Z,100.00
2024-03-02T10:25:52.068Z,100.00
2024-03-02T10:28:24.400Z,100.00
2024-03-02T10:30:52.527Z,100.00
2024-03-02T10:33:19.083Z,100.00
2024-03-02T10:35:45.770Z,100.00
2024-03-02T10:38:12.728Z,100.00
2024-03-02T10:40:39.309Z,100.00
2024-03-02T10:43:07.143Z,100.00
2024-03-02T10:45:34.188Z,100.00
2024-03-02T10:48:03.198Z,100.00
2024-03-02T10:50:30.166Z,100.00
2024-03-02T10:52:56.561Z,100.00
2024-03-02T10:55:23.146Z,100.00
2024-03-02T10:57:53.368Z,100.00
2024-03-02T11:00:25.852Z,99.08
2024-03-02T11:02:57.186Z,98.84
2024-03-02T11:05:28.932Z,98.35
2024-03-02T11:08:02.194Z,97.45
2024-03-02T11:10:37.751Z,97.67
2024-03-02T11:13:11.074Z,96.54
2024-03-02T11:15:38.523Z,95.04
2024-03-02T11:18:09.795Z,95.56
2024-03-02T11:20:39.782Z,95.08
2024-03-02T11:23:08.001Z,95.54
2024-03-02T11:25:34.753Z,95.34
2024-03-02T11:28:03.725Z,93.61
2024-03-02T11:30:33.605Z,92.50
2024-03-02T11:33:11.305Z,92.36
2024-03-02T11:35:43.935Z,90.46
2024-03-02T11:38:10.745Z,91.08
2024-03-02T11:40:37.315Z,91.70
2024-03-02T11:43:06.356Z,91.28
2024-03-02T11:45:34.716Z,90.55
2024-03-02T11:48:01.879Z,89.75
2024-03-02T11:50:34.466Z,89.37
2024-03-02T11:53:01.150Z,88.76
2024-03-02T11:55:28.063Z,87.58
2024-03-02T11:57:54.532Z,88.28
2024-03-02T12:00:21.551Z,88.42
2024-03-02T12:03:01.802Z,88.35
2024-03-02T12:05:28.859Z,88.50
2024-03-02T12:08:03.093Z,88.74
2024-03-02T12:10:30.461Z,87.15
2024-03-02T12:13:00.171Z,86.58
2024-03-02T12:15:31.835Z,87.37
2024-03-02T12:18:02.245Z,88.38
2024-03-02T12:20:30.594Z,88.74
2024-03-02T12:23:00.905Z,88.74
2024-03-02T12:25:38.595Z,88.71
2024-03-02T12:28:08.268Z,89.14
2024-03-02T12:30:36.874Z,89.45
2024-03-02T12:33:03.635Z,89.29
2024-03-02T12:35:33.035Z,88.70
2024-03-02T12:37:59.615Z,88.29
2024-03-02T12:40:35.120Z,88.37
2024-03-02T12:43:02.068Z,87.53
2024-03-02T12:45:28.707Z,86.96
2024-03-02T12:47:55.310Z,86.82
2024-03-02T12:50:22.647Z,85.99
2024-03-02T12:52:56.103Z,86.04
2024-03-02T12:55:23.981Z,85.62
2024-03-02T12:57:52.457Z,85.06
2024-03-02T13:00:20.662Z,84.25
2024-03-02T13:02:48.620Z,84.55
2024-03-02T13:05:15.147Z,83.49
2024-03-02T13:07:42.101Z,83.60
2024-03-02T13:10:11.425Z,82.49
2024-03-02T13:12:38.304Z,83.15
2024-03-02T13:15:06.534Z,83.21
2024-03-02T13:17:38.071Z,82.86
2024-03-02T13:20:09.474Z,82.50
2024-03-02T13:22:36.408Z,82.21
2024-03-02T13:25:05.361Z,82.76
2024-03-02T13:27:35.823Z,82.25
2024-03-02T13:30:10.042Z,82.40
2024-03-02T13:32:36.586Z,82.41
2024-03-02T13:35:04.149Z,82.23
2024-03-02T13:37:30.607Z,82.26
2024-03-02T13:39:57.058Z,81.44
2024-03-02T13:42:23.759Z,81.40
2024-03-02T13:44:52.251Z,81.48
2024-03-02T13:47:18.890Z,81.55
2024-03-02T13:49:47.333Z,82.38
2024-03-02T13:52:18.405Z,82.23
2024-03-02T13:54:46.917Z,82.79
2024-03-02T13:57:18.071Z,81.27
2024-03-02T13:59:45.015Z,81.33
2024-03-02T14:02:12.974Z,82.22
2024-03-02T14:04:42.098Z,81.38
2024-03-02T14:07:09.252Z,82.43
2024-03-02T14:09:36.255Z,82.29
2024-03-02T14:12:03.497Z,82.05
2024-03-02T14:14:29.974Z,82.55
2024-03-02T14:17:06.703Z,82.80
2024-03-02T14:19:33.425Z,82.70
2024-03-02T14:22:00.318Z,82.88
2024-03-02T14:24:27.610Z,83.45
2024-03-02T14:26:58.413Z,83.77
2024-03-02T14:29:29.956Z,85.00
2024-03-02T14:31:56.459Z,84.28
2024-03-02T14:34:23.372Z,84.48
2024-03-02T14:36:49.989Z,84.49
2024-03-02T14:39:16.442Z,84.16
2024-03-02T14:41:42.860Z,84.59
2024-03-02T14:44:09.286Z,84.67
2024-03-02T14:46:35.984Z,83.41
2024-03-02T14:49:02.747Z,83.47
2024-03-02T14:51:31.206Z,83.96
2024-03-02T14:53:57.659Z,84.23
2024-03-02T14:56:24.086Z,84.53
2024-03-02T14:58:52.114Z,84.76
2024-03-02T15:01:19.048Z,84.61
2024-03-02T15:03:45.634Z,83.41
2024-03-02T15:06:12.113Z,83.55
2024-03-02T15:08:38.552Z,84.27
2024-03-02T15:11:05.135Z,83.89
2024-03-02T15:13:31.775Z,84.02
2024-03-02T15:15:58.307Z,84.21
2024-03-02T15:18:25.266Z,84.38
2024-03-02T15:20:51.895Z,83.98
2024-03-02T15:23:18.354Z,83.94
2024-03-02T15:25:44.810Z,83.98
2024-03-02T15:28:11.289Z,83.58
2024-03-02T15:30:37.804Z,83.84
2024-03-02T15:33:04.806Z,83.43
2024-03-02T15:35:31.270Z,83.24
2024-03-02T15:37:57.694Z,83.82
2024-03-02T15:40:24.144Z,84.10
2024-03-02T15:42:50.667Z,83.98
2024-03-02T15:45:17.782Z,83.78
2024-03-02T15:47:44.633Z,84.58
2024-03-02T15:50:11.091Z,84.73
2024-03-02T15:52:37.606Z,84.30
2024-03-02T15:55:06.736Z,84.60
2024-03-02T15:57:34.409Z,84.62
2024-03-02T16:00:00.820Z,84.59
2024-03-02T16:02:27.252Z,85.51
2024-03-02T16:04:53.729Z,84.89
2024-03-02T16:07:20.219Z,84.85
2024-03-02T16:09:46.701Z,84.63
2024-03-02T16:12:13.514Z,85.14
2024-03-02T16:14:39.938Z,84.90
2024-03-02T16:17:07.425Z,85.32
2024-03-02T16:19:35.377Z,85.26
2024-03-02T16:22:01.971Z,85.62
2024-03-02T16:24:28.599Z,85.69
2024-03-02T16:26:55.121Z,85.35
2024-03-02T16:29:21.537Z,85.64
2024-03-02T16:31:47.931Z,86.02
2024-03-02T16:34:14.491Z,86.34
2024-03-02T16:36:41.917Z,86.84
2024-03-02T16:39:09.952Z,87.08
2024-03-02T16:41:36.657Z,86.61
2024-03-02T16:44:06.673Z,86.42
2024-03-02T16:46:33.497Z,86.89
2024-03-02T16:49:00.095Z,86.79
2024-03-02T16:51:26.615Z,87.65
2024-03-02T16:53:53.031Z,88.00
2024-03-02T16:56:19.497Z,88.09
2024-03-02T16:58:45.908Z,88.06
2024-03-02T17:01:12.408Z,87.96
2024-03-02T17:03:38.899Z,88.14
2024-03-02T17:06:05.554Z,88.46
2024-03-02T17:08:32.019Z,88.48
2024-03-02T17:10:58.579Z,88.60
2024-03-02T17:13:25.328Z,88.89
2024-03-02T17:15:51.784Z,88.95
2024-03-02T17:18:18.477Z,89.46
2024-03-02T17:20:45.105Z,88.82
2024-03-02T17:23:11.586Z,89.16
2024-03-02T17:25:38.099Z,89.87
2024-03-02T17:28:19.830Z,89.72
2024-03-02T17:30:46.261Z,90.03
2024-03-02T17:33:12.763Z,90.31
2024-03-02T17:35:39.236Z,89.94
2024-03-02T17:38:05.648Z,90.70
2024-03-02T17:40:32.769Z,91.08
2024-03-02T17:42:59.215Z,91.22
2024-03-02T17:45:25.838Z,91.35
2024-03-02T17:47:52.296Z,92.00
2024-03-02T17:50:18.714Z,92.30
2024-03-02T17:52:45.773Z,92.31
2024-03-02T17:55:12.324Z,93.00
2024-03-02T17:57:38.836Z,93.25
2024-03-02T18:00:06.492Z,93.03
2024-03-02T18:02:34.631Z,93.91
2024-03-02T18:05:01.039Z,93.73
2024-03-02T18:07:27.480Z,93.84
2024-03-02T18:09:53.979Z,94.58
2024-03-02T18:12:20.522Z,95.02
2024-03-02T18:14:47.006Z,95.10
2024-03-02T18:17:13.722Z,95.39
2024-03-02T18:19:40.189Z,95.67
2024-03-02T18:22:06.823Z,95.77
2024-03-02T18:24:36.491Z,96.22
2024-03-02T18:27:04.530Z,96.61
2024-03-02T18:29:30.958Z,96.85
2024-03-02T18:31:58.793Z,97.53
2024-03-02T18:34:25.290Z,97.41
2024-03-02T18:36:52.304Z,97.96
2024-03-02T18:39:19.381Z,98.11
2024-03-02T18:41:45.800Z,98.40
2024-03-02T18:44:12.233Z,98.13
2024-03-02T18:46:38.683Z,98.31
2024-03-02T18:49:05.145Z,98.54
2024-03-02T18:51:31.668Z,98.54
2024-03-02T18:53:58.097Z,99.04
2024-03-02T18:56:24.564Z,100.00
2024-03-02T18:58:51.022Z,99.42
2024-03-02T19:01:17.503Z,99.41
2024-03-02T19:03:44.362Z,99.53
2024-03-02T19:06:17.375Z,100.00
2024-03-02T19:08:44.229Z,100.00
2024-03-02T19:11:15.224Z,100.00
2024-03-02T19:13:42.582Z,100.00
2024-03-02T19:16:13.516Z,100.00
2024-03-02T19:18:41.011Z,100.00
2024-03-02T19:21:08.266Z,100.00
2024-03-02T19:23:40.399Z,100.00
2024-03-02T19:26:12.584Z,100.00
2024-03-02T19:28:39.011Z,100.00
2024-03-02T19:31:05.487Z,100.00
2024-03-02T19:33:32.005Z,100.00
2024-03-02T19:35:58.483Z,100.00
2024-03-02T19:38:26.308Z,100.00
2024-03-02T19:40:53.001Z,100.00
2024-03-02T19:43:19.550Z,100.00
2024-03-02T19:45:46.051Z,100.00
2024-03-02T19:48:12.686Z,100.00
2024-03-02T19:50:40.903Z,100.00
2024-03-02T19:53:07.327Z,100.00
2024-03-02T19:55:33.790Z,100.00
2024-03-02T19:58:00.277Z,100.00
2024-03-02T20:00:26.717Z,100.00
2024-03-02T20:02:53.160Z,100.00
2024-03-02T20:05:19.574Z,100.00
2024-03-02T20:07:46.101Z,100.00
2024-03-02T20:10:13.877Z,100.00
2024-03-02T20:12:40.510Z,100.00
2024-03-02T20:15:07.518Z,100.00
2024-03-02T20:17:34.031Z,100.00
2024-03-02T20:20:00.507Z,100.00
2024-03-02T20:22:26.921Z,100.00
2024-03-02T20:24:53.367Z,100.00
2024-03-02T20:27:20.613Z,100.00
2024-03-02T20:29:47.021Z,100.00
2024-03-02T20:32:13.574Z,100.00
2024-03-02T20:34:39.987Z,100.00
2024-03-02T20:37:06.420Z,100.00
2024-03-02T20:39:33.078Z,100.00
2024-03-02T20:41:59.557Z,100.00
2024-03-02T20:44:27.123Z,100.00
2024-03-02T20:46:54.289Z,100.00
2024-03-02T20:49:21.139Z,100.00
2024-03-02T20:51:47.778Z,100.00
2024-03-02T20:54:14.236Z,100.00
2024-03-02T20:56:43.744Z,100.00
2024-03-02T20:59:10.180Z,100.00
2024-03-02T21:01:37.203Z,100.00
2024-03-02T21:04:03.967Z,100.00
2024-03-02T21:06:30.731Z,100.00
2024-03-02T21:08:57.268Z,100.00
2024-03-02T21:11:23.835Z,100.00
2024-03-02T21:13:50.482Z,100.00
2024-03-02T21:16:17.708Z,100.00
2024-03-02T21:18:44.607Z,100.00
2024-03-02T21:21:14.306Z,100.00
2024-03-02T21:23:40.729Z,100.00
2024-03-02T21:26:07.126Z,100.00
2024-03-02T21:28:33.556Z,100.00
2024-03-02T21:31:00.212Z,100.00
2024-03-02T21:33:29.714Z,100.00
2024-03-02T21:35:56.065Z,100.00
2024-03-02T21:38:22.528Z,100.00
2024-03-02T21:40:50.019Z,100.00
2024-03-02T21:43:16.597Z,100.00
2024-03-02T21:45:43.760Z,100.00
2024-03-02T21:48:10.269Z,100.00
2024-03-02T21:50:36.735Z,100.00
2024-03-02T21:53:04.702Z,100.00
2024-03-02T21:55:31.123Z,100.00
2024-03-02T21:57:58.079Z,100.00
2024-03-02T22:00:25.240Z,100.00
2024-03-02T22:02:51.660Z,100.00
2024-03-02T22:05:18.131Z,100.00
2024-03-02T22:07:44.545Z,100.00
2024-03-02T22:10:11.021Z,100.00
2024-03-02T22:12:37.460Z,100.00
2024-03-02T22:15:04.230Z,100.00
2024-03-02T22:17:30.664Z,100.00
2024-03-02T22:19:57.487Z,100.00
2024-03-02T22:22:24.039Z,100.00
2024-03-02T22:24:50.482Z,100.00
2024-03-02T22:27:17.057Z,100.00
2024-03-02T22:29:43.477Z,100.00
2024-03-02T22:32:09.872Z,100.00
2024-03-02T22:34:36.262Z,100.00
2024-03-02T22:37:02.734Z,100.00
2024-03-02T22:39:29.240Z,100.00
2024-03-02T22:41:56.121Z,100.00
2024-03-02T22:44:22.699Z,100.00
2024-03-02T22:46:49.094Z,100.00
2024-03-02T22:49:15.616Z,100.00
2024-03-02T22:51:42.251Z,100.00
2024-03-02T22:54:08.725Z,100.00
2024-03-02T22:56:35.130Z,100.00
2024-03-02T22:59:02.061Z,100.00
2024-03-02T23:01:28.611Z,100.00
2024-03-02T23:03:55.169Z,100.00
2024-03-02T23:06:21.630Z,100.00
2024-03-02T23:08:48.107Z,100.00
2024-03-02T23:11:14.608Z,100.00
2024-03-02T23:13:41.116Z,100.00
2024-03-02T23:16:07.622Z,100.00
2024-03-02T23:18:34.157Z,100.00
2024-03-02T23:21:00.599Z,100.00
2024-03-02T23:23:27.024Z,100.00
2024-03-02T23:25:53.429Z,100.00
2024-03-02T23:28:19.936Z,100.00
2024-03-02T23:30:47.056Z,100.00
2024-03-02T23:33:13.554Z,100.00
2024-03-02T23:35:39.976Z,100.00
2024-03-02T23:38:06.751Z,100.00
2024-03-02T23:40:51.566Z,100.00
2024-03-02T23:43:18.102Z,100.00
2024-03-02T23:45:44.609Z,100.00
2024-03-02T23:48:11.611Z,100.00
2024-03-02T23:50:38.096Z,100.00
2024-03-02T23:53:04.820Z,100.00
2024-03-02T23:55:42.747Z,100.00
2024-03-02T23:58:17.659Z,100.00
